Time;durP1;ratioP1;P1;durP2;ratioP2;P2;SDS_P1;SDS_P2;PMS_P1;PMS_P2;Temp;Humidity;BMP_temperature;BMP_pressure;BME280_temperature;BME280_humidity;BME280_pressure;Samples;Min_cycle;Max_cycle;Signal;HPM_P1;HPM_P2
2022/03/14 00:00:47;;;;;;;39.30;21.33;;;4.40;1.00;;;;;;5051568;28;20188;-80
2022/03/14 00:03:15;;;;;;;37.17;20.37;;;4.40;1.00;;;;;;5051549;28;20253;-80
2022/03/14 00:05:42;;;;;;;31.87;18.67;;;4.30;1.00;;;;;;5051908;28;20199;-80
2022/03/14 00:08:09;;;;;;;43.13;22.00;;;4.20;1.00;;;;;;5051534;28;20247;-80
2022/03/14 00:10:38;;;;;;;36.93;20.93;;;4.20;1.00;;;;;;5051589;28;20189;-81
2022/03/14 00:13:07;;;;;;;38.07;19.93;;;4.20;1.00;;;;;;5051570;28;20203;-80
2022/03/14 00:15:34;;;;;;;36.10;20.60;;;4.10;1.00;;;;;;5051302;28;20554;-81
2022/03/14 00:18:02;;;;;;;38.77;21.20;;;4.10;1.00;;;;;;5052068;28;20205;-80
2022/03/14 00:20:29;;;;;;;45.47;22.57;;;4.10;1.00;;;;;;5051958;28;20189;-81
2022/03/14 00:22:58;;;;;;;36.50;20.47;;;4.10;1.00;;;;;;5051299;28;20233;-80
2022/03/14 00:25:26;;;;;;;41.00;20.70;;;4.10;1.00;;;;;;5051370;28;20196;-80
2022/03/14 00:27:55;;;;;;;37.07;19.63;;;4.10;1.00;;;;;;5051361;28;20548;-80
2022/03/14 00:30:22;;;;;;;41.07;22.67;;;4.00;1.00;;;;;;5051668;28;20193;-80
2022/03/14 00:32:49;;;;;;;41.80;22.03;;;4.00;1.00;;;;;;5051470;28;20193;-80
2022/03/14 00:35:16;;;;;;;41.40;21.30;;;4.00;1.00;;;;;;5051736;28;20263;-81
2022/03/14 00:37:43;;;;;;;41.70;22.07;;;4.00;1.00;;;;;;5051903;28;20286;-80
2022/03/14 00:40:12;;;;;;;39.37;20.57;;;3.90;1.00;;;;;;5054980;28;20193;-80
2022/03/14 00:42:40;;;;;;;41.17;22.90;;;3.90;1.00;;;;;;5054943;28;20262;-80
2022/03/14 00:45:09;;;;;;;40.87;22.23;;;3.80;1.00;;;;;;5055157;28;20283;-80
2022/03/14 00:47:36;;;;;;;40.03;21.10;;;3.90;1.00;;;;;;5055022;28;20188;-80
2022/03/14 00:50:04;;;;;;;31.57;17.67;;;3.80;1.00;;;;;;5054965;28;20665;-80
2022/03/14 00:52:31;;;;;;;38.47;20.07;;;3.80;1.00;;;;;;5054784;28;20602;-81
2022/03/14 00:54:57;;;;;;;42.40;20.70;;;3.80;1.00;;;;;;5054598;28;20654;-79
2022/03/14 00:57:24;;;;;;;41.83;21.33;;;3.80;1.00;;;;;;5054908;28;20193;-80
2022/03/14 00:59:51;;;;;;;37.63;18.50;;;3.80;1.00;;;;;;5054776;28;20247;-80
2022/03/14 01:02:20;;;;;;;35.60;19.57;;;3.80;1.00;;;;;;5054371;28;20196;-80
2022/03/14 01:04:47;;;;;;;39.00;20.93;;;3.80;1.00;;;;;;5054399;28;20228;-80
2022/03/14 01:07:14;;;;;;;40.63;22.30;;;3.70;1.00;;;;;;5054409;28;20209;-80
2022/03/14 01:09:41;;;;;;;43.07;21.07;;;3.80;1.00;;;;;;5054702;28;20241;-80
2022/03/14 01:12:09;;;;;;;39.30;21.93;;;3.70;1.00;;;;;;5054654;28;20192;-80
2022/03/14 01:14:36;;;;;;;39.67;22.40;;;3.70;1.00;;;;;;5054443;28;20196;-80
2022/03/14 01:17:03;;;;;;;40.23;18.83;;;3.70;1.00;;;;;;5054791;28;20188;-81
2022/03/14 01:19:32;;;;;;;43.87;21.47;;;3.70;1.00;;;;;;5054240;28;20197;-80
2022/03/14 01:21:59;;;;;;;44.40;22.07;;;3.70;1.00;;;;;;5054323;28;20271;-81
2022/03/14 01:24:26;;;;;;;41.03;21.67;;;3.70;1.00;;;;;;5054356;28;20232;-80
2022/03/14 01:26:53;;;;;;;36.40;19.70;;;3.60;1.00;;;;;;5054186;28;20247;-80
2022/03/14 01:29:22;;;;;;;45.93;22.07;;;3.60;1.00;;;;;;5054223;28;20269;-80
2022/03/14 01:31:51;;;;;;;42.43;22.20;;;3.60;1.00;;;;;;5054161;28;20193;-80
2022/03/14 01:34:19;;;;;;;44.13;23.33;;;3.60;1.00;;;;;;5053989;28;20661;-80
2022/03/14 01:36:47;;;;;;;38.00;19.67;;;3.60;1.00;;;;;;5053691;28;20188;-80
2022/03/14 01:39:14;;;;;;;38.90;21.10;;;3.60;1.00;;;;;;5053760;28;20550;-80
2022/03/14 01:41:41;;;;;;;39.77;21.43;;;3.60;1.00;;;;;;5053492;28;20234;-80
2022/03/14 01:44:08;;;;;;;37.90;19.93;;;3.60;1.00;;;;;;5053815;28;20681;-80
2022/03/14 01:46:35;;;;;;;40.73;21.63;;;3.60;1.00;;;;;;5053848;28;20246;-80
2022/03/14 01:49:02;;;;;;;37.77;19.27;;;3.60;1.00;;;;;;5053317;28;20214;-80
2022/03/14 01:51:29;;;;;;;40.47;21.90;;;3.50;1.00;;;;;;5053805;28;20197;-80
2022/03/14 01:53:58;;;;;;;45.30;22.53;;;3.50;1.00;;;;;;5053583;28;20196;-81
2022/03/14 01:56:26;;;;;;;39.17;20.33;;;3.60;1.00;;;;;;5053461;28;20262;-81
2022/03/14 01:58:54;;;;;;;43.77;22.73;;;3.60;1.00;;;;;;5053886;28;20577;-81
2022/03/14 02:01:22;;;;;;;42.30;22.93;;;3.50;1.00;;;;;;5052963;28;20610;-80
2022/03/14 02:03:50;;;;;;;42.97;23.27;;;3.50;1.00;;;;;;5053525;28;20293;-81
2022/03/14 02:06:17;;;;;;;41.97;21.27;;;3.40;1.00;;;;;;5053663;28;20195;-81
2022/03/14 02:08:45;;;;;;;42.20;21.87;;;3.50;1.00;;;;;;5053629;28;20193;-80
2022/03/14 02:11:13;;;;;;;45.60;20.60;;;3.40;1.00;;;;;;5053160;28;20620;-81
2022/03/14 02:13:40;;;;;;;40.67;22.20;;;3.40;1.00;;;;;;5053522;28;20197;-80
2022/03/14 02:16:08;;;;;;;39.90;20.43;;;3.40;1.00;;;;;;5053606;28;20192;-80
2022/03/14 02:18:35;;;;;;;42.70;23.07;;;3.40;1.00;;;;;;5053046;28;20235;-80
2022/03/14 02:21:05;;;;;;;42.10;22.23;;;3.40;1.00;;;;;;5053294;28;20200;-80
2022/03/14 02:23:32;;;;;;;32.97;18.20;;;3.40;1.00;;;;;;5053123;28;20236;-81
2022/03/14 02:25:59;;;;;;;42.70;22.90;;;3.30;1.00;;;;;;5053288;28;20246;-80
2022/03/14 02:28:27;;;;;;;43.50;22.20;;;3.40;1.00;;;;;;5053276;28;20196;-81
2022/03/14 02:30:54;;;;;;;43.30;22.93;;;3.40;1.00;;;;;;5052768;28;20668;-80
2022/03/14 02:33:22;;;;;;;45.30;22.00;;;3.40;1.00;;;;;;5052435;28;20659;-80
2022/03/14 02:35:49;;;;;;;43.50;22.67;;;3.30;1.00;;;;;;5052860;28;20196;-81
2022/03/14 02:38:19;;;;;;;46.43;22.53;;;3.30;1.00;;;;;;5052946;28;20708;-80
2022/03/14 02:40:48;;;;;;;44.67;22.40;;;3.30;1.00;;;;;;5052942;28;20215;-80
2022/03/14 02:43:16;;;;;;;44.70;23.33;;;3.20;1.00;;;;;;5052503;28;20272;-80
2022/03/14 02:45:45;;;;;;;44.00;22.23;;;3.20;1.00;;;;;;5052863;28;20538;-80
2022/03/14 02:48:13;;;;;;;41.57;22.30;;;3.20;1.00;;;;;;5052741;28;20189;-80
2022/03/14 02:50:42;;;;;;;42.80;21.33;;;3.20;1.00;;;;;;5053140;28;20197;-80
2022/03/14 02:53:10;;;;;;;43.43;23.50;;;3.20;1.00;;;;;;5052556;28;20205;-82
2022/03/14 02:55:38;;;;;;;46.63;23.00;;;3.20;1.00;;;;;;5052452;28;20224;-82
2022/03/14 02:58:06;;;;;;;46.97;23.07;;;3.20;1.00;;;;;;5052420;28;20192;-83
2022/03/14 03:00:35;;;;;;;46.90;23.37;;;3.20;1.00;;;;;;5050306;28;20196;-83
2022/03/14 03:03:02;;;;;;;47.27;24.80;;;3.20;1.00;;;;;;5050404;28;20625;-83
2022/03/14 03:05:30;;;;;;;44.30;22.83;;;3.20;1.00;;;;;;5052275;28;20192;-81
2022/03/14 03:08:00;;;;;;;45.87;23.33;;;3.20;1.00;;;;;;5052487;28;20193;-81
2022/03/14 03:10:27;;;;;;;40.33;21.67;;;3.10;1.00;;;;;;5052491;28;20201;-81
2022/03/14 03:12:56;;;;;;;45.07;22.97;;;3.10;1.00;;;;;;5052462;28;20192;-81
2022/03/14 03:15:23;;;;;;;38.77;21.43;;;3.10;1.00;;;;;;5052098;28;20287;-80
2022/03/14 03:17:50;;;;;;;44.07;23.23;;;3.10;1.00;;;;;;5051998;28;20251;-82
2022/03/14 03:20:17;;;;;;;41.77;24.50;;;3.00;1.00;;;;;;5052411;28;20242;-82
2022/03/14 03:22:44;;;;;;;45.33;22.50;;;3.00;1.00;;;;;;5052463;28;20224;-82
2022/03/14 03:25:12;;;;;;;40.13;20.73;;;3.00;1.00;;;;;;5052529;28;20208;-79
2022/03/14 03:27:39;;;;;;;51.87;25.17;;;2.90;1.00;;;;;;5051996;28;20197;-80
2022/03/14 03:30:08;;;;;;;40.67;22.67;;;2.90;1.00;;;;;;5052001;28;20665;-81
2022/03/14 03:32:39;;;;;;;44.50;22.23;;;3.00;1.00;;;;;;5053315;28;20318;-81
2022/03/14 03:35:06;;;;;;;45.43;23.50;;;2.90;1.00;;;;;;5063039;28;20199;-80
2022/03/14 03:37:33;;;;;;;41.37;22.30;;;2.90;1.00;;;;;;5052190;28;20545;-82
2022/03/14 03:40:00;;;;;;;49.50;25.83;;;2.90;1.00;;;;;;5051933;28;20196;-83
2022/03/14 03:42:27;;;;;;;44.50;22.37;;;2.80;1.00;;;;;;5052180;28;20242;-83
2022/03/14 03:44:54;;;;;;;43.70;21.97;;;2.80;1.00;;;;;;5051715;28;20262;-84
2022/03/14 03:47:22;;;;;;;42.97;22.43;;;2.70;1.00;;;;;;5052055;28;20192;-84
2022/03/14 03:49:49;;;;;;;44.60;24.63;;;2.60;1.00;;;;;;5051754;28;20184;-80
2022/03/14 03:52:16;;;;;;;48.77;24.27;;;2.60;1.00;;;;;;5052357;28;20197;-82
2022/03/14 03:54:43;;;;;;;47.70;23.60;;;2.60;1.00;;;;;;5052278;28;20254;-80
2022/03/14 03:57:10;;;;;;;55.77;26.80;;;2.50;1.00;;;;;;5051576;28;20250;-81
2022/03/14 03:59:37;;;;;;;48.53;25.87;;;2.50;1.00;;;;;;5051943;28;20258;-82
2022/03/14 04:02:05;;;;;;;45.17;22.93;;;2.40;1.00;;;;;;5051988;28;20239;-82
2022/03/14 04:04:37;;;;;;;47.17;23.63;;;2.40;1.00;;;;;;5051972;28;20539;-84
2022/03/14 04:07:06;;;;;;;48.10;25.07;;;2.30;1.00;;;;;;5051675;28;20638;-83
2022/03/14 04:09:33;;;;;;;53.93;25.30;;;2.30;1.00;;;;;;5051850;28;20229;-82
2022/03/14 04:12:00;;;;;;;47.93;25.13;;;2.30;1.00;;;;;;5052473;28;20267;-82
2022/03/14 04:14:27;;;;;;;44.43;24.93;;;2.20;1.00;;;;;;5055610;28;20555;-83
2022/03/14 04:16:54;;;;;;;50.77;23.63;;;2.20;1.00;;;;;;5055652;28;20553;-83
2022/03/14 04:19:21;;;;;;;51.40;25.60;;;2.20;1.00;;;;;;5055544;28;20227;-84
2022/03/14 04:21:52;;;;;;;49.80;26.43;;;2.10;1.00;;;;;;5055768;28;20192;-84
2022/03/14 04:24:20;;;;;;;43.87;22.53;;;2.10;1.00;;;;;;5055695;28;20263;-83
2022/03/14 04:26:47;;;;;;;51.43;25.10;;;2.10;1.00;;;;;;5054804;28;20660;-82
2022/03/14 04:29:15;;;;;;;42.87;23.47;;;2.00;1.00;;;;;;5055586;28;20193;-81
2022/03/14 04:31:42;;;;;;;48.50;23.67;;;2.00;1.00;;;;;;5055032;28;20239;-81
2022/03/14 04:34:09;;;;;;;44.47;24.40;;;2.00;1.00;;;;;;5055326;28;20266;-81
2022/03/14 04:36:36;;;;;;;47.77;22.50;;;2.00;1.00;;;;;;5054917;28;20188;-83
2022/03/14 04:39:05;;;;;;;48.30;24.07;;;2.00;1.00;;;;;;5055326;28;20238;-82
2022/03/14 04:41:35;;;;;;;48.43;23.70;;;2.00;1.00;;;;;;5055256;28;20224;-83
2022/03/14 04:44:02;;;;;;;50.23;24.70;;;1.90;1.00;;;;;;5055269;28;20205;-83
2022/03/14 04:46:29;;;;;;;50.03;25.50;;;1.90;1.00;;;;;;5054803;28;20189;-82
2022/03/14 04:48:58;;;;;;;51.93;25.30;;;1.80;1.00;;;;;;5054824;28;20193;-81
2022/03/14 04:51:25;;;;;;;54.00;26.93;;;1.80;1.00;;;;;;5055051;28;20215;-82
2022/03/14 04:53:52;;;;;;;41.93;21.83;;;1.80;1.00;;;;;;5054906;28;20200;-80
2022/03/14 04:56:20;;;;;;;53.57;26.37;;;1.70;1.00;;;;;;5055167;28;20262;-84
2022/03/14 04:58:47;;;;;;;50.20;24.87;;;1.70;1.00;;;;;;5055105;28;20242;-84
2022/03/14 05:01:14;;;;;;;48.23;23.23;;;1.70;1.00;;;;;;5054553;28;20204;-83
2022/03/14 05:03:41;;;;;;;51.20;24.93;;;1.70;1.00;;;;;;5054362;28;20212;-83
2022/03/14 05:06:08;;;;;;;58.80;25.43;;;1.70;1.00;;;;;;5054490;28;20270;-82
2022/03/14 05:08:35;;;;;;;51.80;25.83;;;1.60;1.00;;;;;;5054272;28;20251;-83
2022/03/14 05:11:04;;;;;;;51.20;25.07;;;1.60;1.00;;;;;;5054383;28;20641;-81
2022/03/14 05:13:32;;;;;;;55.33;24.70;;;1.60;1.00;;;;;;5054501;28;20223;-82
2022/03/14 05:15:59;;;;;;;49.07;26.00;;;1.60;1.00;;;;;;5057651;28;20200;-82
2022/03/14 05:18:26;;;;;;;54.10;25.33;;;1.50;1.00;;;;;;5054479;28;20196;-81
2022/03/14 05:20:53;;;;;;;49.77;22.80;;;1.60;1.00;;;;;;5055401;28;20280;-82
2022/03/14 05:23:20;;;;;;;55.37;25.47;;;1.50;1.00;;;;;;5055303;28;20224;-84
2022/03/14 05:25:47;;;;;;;48.07;24.20;;;1.50;1.00;;;;;;5055335;28;20242;-80
2022/03/14 05:28:17;;;;;;;48.57;23.93;;;1.50;1.00;;;;;;5036737;28;20193;-80
2022/03/14 05:30:45;;;;;;;48.43;23.50;;;1.50;1.00;;;;;;5037042;28;20193;-82
2022/03/14 05:33:12;;;;;;;47.10;22.77;;;1.50;1.00;;;;;;5037247;28;20600;-84
2022/03/14 05:35:48;;;;;;;50.13;24.33;;;1.50;1.00;;;;;;5049687;28;20189;-80
2022/03/14 05:38:25;;;;;;;49.97;23.80;;;1.50;1.00;;;;;;5057220;28;20234;-80
2022/03/14 05:40:52;;;;;;;48.33;25.37;;;1.50;1.00;;;;;;5055790;28;20184;-80
2022/03/14 05:43:19;;;;;;;47.63;23.80;;;1.60;1.00;;;;;;5056728;28;20284;-81
2022/03/14 05:45:53;;;;;;;43.90;21.83;;;1.60;1.00;;;;;;5054449;28;20224;-81
2022/03/14 05:48:21;;;;;;;43.20;23.03;;;1.60;1.00;;;;;;5057431;28;20688;-81
2022/03/14 05:50:48;;;;;;;43.87;21.00;;;1.60;1.00;;;;;;5056014;28;20224;-79
2022/03/14 05:53:16;;;;;;;49.73;23.27;;;1.70;1.00;;;;;;5054309;28;20193;-83
2022/03/14 05:55:43;;;;;;;48.17;24.10;;;1.70;1.00;;;;;;5054690;28;20224;-81
2022/03/14 05:58:19;;;;;;;51.47;25.83;;;1.70;1.00;;;;;;5054348;28;20192;-81
2022/03/14 06:00:52;;;;;;;47.43;23.07;;;1.80;1.00;;;;;;5054929;28;20707;-81
2022/03/14 06:03:21;;;;;;;45.70;22.57;;;1.90;1.00;;;;;;5055045;28;20661;-80
2022/03/14 06:05:48;;;;;;;44.17;21.83;;;2.30;1.00;;;;;;5053778;28;20694;-81
2022/03/14 06:08:15;;;;;;;47.23;22.53;;;3.10;1.00;;;;;;5053663;28;20758;-81
2022/03/14 06:10:45;;;;;;;42.47;20.73;;;3.90;1.00;;;;;;5053698;28;20244;-82
2022/03/14 06:13:13;;;;;;;49.53;22.53;;;4.70;1.00;;;;;;5053847;28;20278;-84
2022/03/14 06:15:40;;;;;;;40.13;22.07;;;5.30;1.00;;;;;;5053957;28;20278;-82
2022/03/14 06:18:08;;;;;;;40.90;21.00;;;5.80;1.00;;;;;;5053806;28;20196;-82
2022/03/14 06:20:35;;;;;;;45.50;23.40;;;6.20;1.00;;;;;;5053948;28;20202;-82
2022/03/14 06:23:04;;;;;;;44.93;24.03;;;6.70;1.00;;;;;;5053768;28;20680;-82
2022/03/14 06:25:33;;;;;;;38.97;22.77;;;7.10;1.00;;;;;;5053287;28;20276;-84
2022/03/14 06:28:00;;;;;;;42.07;22.87;;;7.40;1.00;;;;;;5053374;28;20252;-83
2022/03/14 06:30:27;;;;;;;42.73;25.20;;;7.70;1.00;;;;;;5052866;28;20679;-82
2022/03/14 06:33:01;;;;;;;42.43;23.67;;;7.90;1.00;;;;;;5053386;28;20201;-84
2022/03/14 06:35:29;;;;;;;44.20;23.83;;;8.00;1.00;;;;;;5053077;28;20185;-83
2022/03/14 06:37:56;;;;;;;39.07;19.90;;;7.90;1.00;;;;;;5053187;28;20248;-83
2022/03/14 06:40:26;;;;;;;41.90;22.70;;;8.00;1.00;;;;;;5054466;28;20644;-84
2022/03/14 06:42:53;;;;;;;45.87;24.50;;;8.30;1.00;;;;;;5053464;28;20626;-83
2022/03/14 06:45:23;;;;;;;43.03;23.47;;;8.40;1.00;;;;;;5056759;28;20230;-87
2022/03/14 06:47:51;;;;;;;43.13;24.60;;;8.50;1.00;;;;;;5052583;28;20243;-84
2022/03/14 06:50:18;;;;;;;42.97;21.97;;;8.60;1.00;;;;;;5052853;28;20205;-85
2022/03/14 06:52:50;;;;;;;38.60;23.20;;;8.60;1.00;;;;;;5053971;28;20657;-83
2022/03/14 06:55:17;;;;;;;42.83;22.27;;;8.50;1.00;;;;;;5053686;28;20543;-84
2022/03/14 06:57:45;;;;;;;38.40;22.07;;;8.70;1.00;;;;;;5049173;28;20597;-84
2022/03/14 07:00:27;;;;;;;40.30;24.27;;;9.00;1.00;;;;;;5031553;28;20641;-85
2022/03/14 07:02:54;;;;;;;41.00;22.43;;;9.50;1.00;;;;;;5033344;28;20193;-85
2022/03/14 07:05:24;;;;;;;44.73;23.37;;;10.00;1.00;;;;;;5042952;28;21599;-83
2022/03/14 07:07:55;;;;;;;39.20;22.17;;;10.60;1.00;;;;;;5032745;28;20220;-83
2022/03/14 07:10:23;;;;;;;42.43;22.30;;;11.20;1.00;;;;;;5037637;28;20194;-85
2022/03/14 07:12:50;;;;;;;41.00;23.37;;;11.70;1.00;;;;;;5038917;28;20194;-85
2022/03/14 07:15:20;;;;;;;39.03;23.07;;;12.20;1.00;;;;;;5035985;28;20196;-84
2022/03/14 07:17:50;;;;;;;41.90;24.50;;;12.80;1.00;;;;;;5034378;28;20201;-84
2022/03/14 07:20:18;;;;;;;41.87;22.67;;;13.20;1.00;;;;;;5031913;28;20183;-85
2022/03/14 07:22:57;;;;;;;36.58;21.65;;;13.70;1.00;;;;;;5032547;28;20289;-87
2022/03/14 07:25:26;;;;;;;38.65;23.00;;;14.30;1.00;;;;;;5035284;28;20211;-87
2022/03/14 07:27:54;;;;;;;32.80;21.10;;;14.40;1.00;;;;;;5034749;28;20192;-84
2022/03/14 07:30:25;;;;;;;36.38;21.23;;;14.60;1.00;;;;;;5034509;28;20201;-86
2022/03/14 07:32:52;;;;;;;36.88;21.35;;;14.80;1.00;;;;;;5047650;28;20185;-86
2022/03/14 07:35:19;;;;;;;35.05;21.20;;;15.00;1.00;;;;;;5053994;28;20197;-86
2022/03/14 07:37:50;;;;;;;33.92;21.35;;;15.20;1.00;;;;;;5053413;28;20259;-84
2022/03/14 07:40:18;;;;;;;34.38;21.08;;;15.40;1.00;;;;;;5052379;28;20181;-85
2022/03/14 07:42:47;;;;;;;32.80;20.38;;;15.70;1.00;;;;;;5052226;28;20638;-85
2022/03/14 07:45:16;;;;;;;33.72;20.63;;;16.00;1.00;;;;;;5054508;28;20267;-85
2022/03/14 07:47:44;;;;;;;33.90;20.38;;;16.10;1.00;;;;;;5053864;28;20250;-86
2022/03/14 07:50:13;;;;;;;31.63;20.17;;;16.20;1.00;;;;;;5057163;28;20246;-84
2022/03/14 07:52:40;;;;;;;31.50;19.83;;;16.40;1.00;;;;;;5056262;28;20197;-86
2022/03/14 07:55:08;;;;;;;34.13;21.30;;;16.60;1.00;;;;;;5058971;28;20250;-85
2022/03/14 07:57:41;;;;;;;28.48;18.98;;;16.70;1.00;;;;;;5058192;28;20534;-90
2022/03/14 08:00:10;;;;;;;32.17;19.73;;;17.10;1.00;;;;;;5058991;28;20707;-84
2022/03/14 08:02:38;;;;;;;32.67;20.95;;;17.50;1.00;;;;;;5059567;28;20193;-84
2022/03/14 08:05:10;;;;;;;31.05;18.63;;;17.90;1.00;;;;;;5060737;28;20265;-86
2022/03/14 08:07:41;;;;;;;32.13;19.25;;;18.30;1.00;;;;;;5060395;28;20208;-87
2022/03/14 08:10:09;;;;;;;30.38;19.67;;;18.50;1.00;;;;;;5062225;28;20200;-84
2022/03/14 08:12:49;;;;;;;29.13;19.40;;;18.60;1.00;;;;;;5057368;28;20279;-84
2022/03/14 08:15:23;;;;;;;32.05;19.10;;;18.60;1.00;;;;;;5057281;28;20211;-86
2022/03/14 08:17:52;;;;;;;30.30;19.48;;;18.60;1.00;;;;;;5057539;28;20184;-84
2022/03/14 08:20:20;;;;;;;29.38;19.25;;;18.50;1.00;;;;;;5055589;28;20246;-84
2022/03/14 08:22:47;;;;;;;29.15;18.92;;;18.70;1.00;;;;;;5057693;28;20288;-84
2022/03/14 08:25:15;;;;;;;31.13;19.88;;;18.70;1.00;;;;;;5056890;28;20228;-86
2022/03/14 08:27:43;;;;;;;28.33;19.05;;;18.70;1.00;;;;;;5055080;28;20228;-85
2022/03/14 08:30:10;;;;;;;28.38;18.33;;;18.90;1.00;;;;;;5064900;28;20178;-84
2022/03/14 08:32:39;;;;;;;29.73;18.40;;;19.20;1.00;;;;;;5057113;28;20235;-84
2022/03/14 08:35:08;;;;;;;30.27;19.10;;;19.40;1.00;;;;;;5058817;28;20312;-85
2022/03/14 08:37:39;;;;;;;35.38;19.15;;;19.30;1.00;;;;;;5054849;28;20636;-85
2022/03/14 08:40:09;;;;;;;29.60;18.83;;;19.20;1.00;;;;;;5057863;28;20642;-84
2022/03/14 08:42:36;;;;;;;32.55;19.15;;;19.20;1.00;;;;;;5057763;28;20528;-84
2022/03/14 08:45:07;;;;;;;29.27;18.98;;;19.20;1.00;;;;;;5055432;28;20239;-87
2022/03/14 08:47:35;;;;;;;31.30;19.17;;;19.40;1.00;;;;;;5056313;28;20189;-86
2022/03/14 08:50:02;;;;;;;28.05;17.88;;;19.60;1.00;;;;;;5056299;28;20193;-83
2022/03/14 08:52:29;;;;;;;27.70;17.92;;;19.80;1.00;;;;;;5057838;28;20558;-85
2022/03/14 08:54:56;;;;;;;29.10;18.45;;;19.60;1.00;;;;;;5054957;28;20216;-87
2022/03/14 08:57:23;;;;;;;29.45;18.80;;;19.50;1.00;;;;;;5056645;28;20196;-84
2022/03/14 08:59:50;;;;;;;28.15;17.98;;;19.40;1.00;;;;;;5054938;28;20193;-88
2022/03/14 09:02:19;;;;;;;34.00;20.02;;;19.30;1.00;;;;;;5055655;28;20276;-86
2022/03/14 09:04:46;;;;;;;31.10;19.17;;;19.00;1.00;;;;;;5061894;28;20197;-85
2022/03/14 09:07:23;;;;;;;29.08;18.80;;;18.80;1.00;;;;;;5055486;28;20185;-86
2022/03/14 09:09:50;;;;;;;28.25;18.73;;;18.50;1.00;;;;;;5055826;28;20191;-84
2022/03/14 09:12:19;;;;;;;31.00;19.35;;;18.20;1.00;;;;;;5054327;28;20653;-83
2022/03/14 09:14:46;;;;;;;27.35;17.92;;;18.20;1.00;;;;;;5057938;28;20243;-85
2022/03/14 09:17:13;;;;;;;29.92;19.30;;;18.40;1.00;;;;;;5056039;28;20240;-83
2022/03/14 09:19:41;;;;;;;26.35;17.25;;;18.10;1.00;;;;;;5056792;28;20589;-84
2022/03/14 09:22:11;;;;;;;33.13;18.70;;;18.10;1.00;;;;;;5057145;28;20288;-86
2022/03/14 09:24:39;;;;;;;29.77;18.35;;;18.10;1.00;;;;;;5060410;28;20255;-84
2022/03/14 09:27:07;;;;;;;29.65;18.63;;;17.90;1.00;;;;;;5061246;28;20201;-85
2022/03/14 09:29:34;;;;;;;28.40;18.15;;;17.70;1.00;;;;;;5055500;28;20738;-86
2022/03/14 09:32:01;;;;;;;29.17;17.95;;;17.50;1.00;;;;;;5060772;28;20197;-84
2022/03/14 09:34:28;;;;;;;29.65;17.42;;;17.50;1.00;;;;;;5057537;28;20196;-84
2022/03/14 09:36:57;;;;;;;27.85;18.00;;;17.70;1.00;;;;;;5053718;28;20213;-85
2022/03/14 09:39:24;;;;;;;27.65;17.13;;;17.80;1.00;;;;;;5055753;28;20207;-85
2022/03/14 09:41:57;;;;;;;32.58;20.35;;;17.90;1.00;;;;;;5053955;28;20197;-84
2022/03/14 09:44:28;;;;;;;27.70;16.98;;;18.00;1.00;;;;;;5055453;28;20189;-87
2022/03/14 09:46:56;;;;;;;28.38;17.33;;;17.90;1.00;;;;;;5054977;28;20182;-86
2022/03/14 09:49:25;;;;;;;27.45;17.15;;;17.80;1.00;;;;;;5055972;28;20193;-86
2022/03/14 09:51:56;;;;;;;23.63;16.45;;;17.90;1.00;;;;;;5058919;28;20638;-85
2022/03/14 09:54:25;;;;;;;27.40;18.10;;;17.90;1.00;;;;;;5059269;28;20243;-85
2022/03/14 09:56:52;;;;;;;29.67;18.45;;;17.80;1.00;;;;;;5060930;28;20753;-84
2022/03/14 09:59:20;;;;;;;26.33;17.38;;;17.70;1.00;;;;;;5061724;28;20188;-86
2022/03/14 10:01:49;;;;;;;27.50;15.88;;;17.30;1.00;;;;;;5055878;28;20249;-83
2022/03/14 10:04:16;;;;;;;31.70;18.08;;;16.90;1.00;;;;;;5058728;28;20200;-88
2022/03/14 10:06:44;;;;;;;24.30;16.45;;;16.50;1.00;;;;;;5055333;28;20201;-86
2022/03/14 10:09:12;;;;;;;29.47;18.27;;;16.10;1.00;;;;;;5053246;28;20289;-84
2022/03/14 10:11:40;;;;;;;29.50;16.80;;;15.80;1.00;;;;;;5054020;28;20706;-84
2022/03/14 10:14:10;;;;;;;25.87;16.47;;;15.70;1.00;;;;;;5055683;28;20593;-81
2022/03/14 10:16:38;;;;;;;30.57;17.97;;;15.40;1.00;;;;;;5054616;28;20211;-83
2022/03/14 10:19:09;;;;;;;25.93;16.63;;;14.90;1.00;;;;;;5057069;28;20193;-85
2022/03/14 10:21:39;;;;;;;27.17;16.40;;;14.70;1.00;;;;;;5054249;28;20550;-85
2022/03/14 10:24:07;;;;;;;25.67;16.30;;;14.50;1.00;;;;;;5057639;28;20228;-86
2022/03/14 10:26:37;;;;;;;29.47;16.37;;;14.20;1.00;;;;;;5057006;28;20663;-83
2022/03/14 10:29:12;;;;;;;28.90;16.90;;;14.00;1.00;;;;;;5054251;28;20245;-82
2022/03/14 10:31:42;;;;;;;30.87;17.00;;;13.90;1.00;;;;;;5053677;28;20543;-85
2022/03/14 10:34:11;;;;;;;25.20;15.33;;;13.90;1.00;;;;;;5043942;28;20248;-84
2022/03/14 10:36:42;;;;;;;28.07;16.80;;;13.90;1.00;;;;;;5036373;28;20623;-85
2022/03/14 10:39:27;;;;;;;27.40;15.73;;;13.90;1.00;;;;;;5054573;28;20672;-84
2022/03/14 10:42:07;;;;;;;24.00;13.93;;;13.90;1.00;;;;;;5060031;28;20185;-85
2022/03/14 10:44:37;;;;;;;32.63;15.30;;;13.80;1.00;;;;;;5058980;28;20254;-85
2022/03/14 10:47:06;;;;;;;31.30;16.73;;;13.70;1.00;;;;;;5059233;28;20183;-84
2022/03/14 10:49:35;;;;;;;31.60;14.50;;;13.60;1.00;;;;;;5055068;28;20219;-83
2022/03/14 10:52:05;;;;;;;38.27;22.10;;;13.60;1.00;;;;;;5057086;28;20200;-86
2022/03/14 10:54:36;;;;;;;26.40;14.17;;;13.60;1.00;;;;;;5058517;28;20185;-83
2022/03/14 10:57:07;;;;;;;26.83;16.13;;;13.70;1.00;;;;;;5056389;28;20220;-84
2022/03/14 10:59:36;;;;;;;30.67;18.40;;;13.60;1.00;;;;;;5061604;28;20181;-84
2022/03/14 11:02:04;;;;;;;30.20;17.80;;;13.70;1.00;;;;;;5056631;28;20200;-84
2022/03/14 11:04:40;;;;;;;24.00;14.17;;;13.80;1.00;;;;;;5056448;28;20199;-84
2022/03/14 11:07:20;;;;;;;21.23;13.20;;;13.80;1.00;;;;;;5058555;28;20275;-85
2022/03/14 11:09:52;;;;;;;23.27;13.80;;;13.80;1.00;;;;;;5060024;28;20184;-85
2022/03/14 11:12:22;;;;;;;31.20;16.67;;;13.80;1.00;;;;;;5056478;28;20273;-83
2022/03/14 11:14:53;;;;;;;34.00;18.10;;;13.70;1.00;;;;;;5045293;28;20206;-86
2022/03/14 11:17:24;;;;;;;30.13;18.47;;;13.80;1.00;;;;;;5045288;28;20218;-82
2022/03/14 11:19:52;;;;;;;26.50;16.60;;;13.80;1.00;;;;;;5055126;28;20548;-82
2022/03/14 11:22:21;;;;;;;33.97;21.17;;;13.80;1.00;;;;;;5053045;28;20195;-88
2022/03/14 11:24:50;;;;;;;26.87;15.80;;;13.80;1.00;;;;;;5051875;28;20192;-82
2022/03/14 11:27:23;;;;;;;27.63;17.27;;;13.80;1.00;;;;;;5055192;28;20257;-84
2022/03/14 11:29:53;;;;;;;26.03;15.33;;;13.90;1.00;;;;;;5057951;28;20188;-84
2022/03/14 11:32:20;;;;;;;24.93;16.57;;;13.90;1.00;;;;;;5054377;28;20243;-83
2022/03/14 11:34:49;;;;;;;27.97;15.30;;;13.80;1.00;;;;;;5058088;28;20183;-82
2022/03/14 11:37:18;;;;;;;30.97;16.40;;;13.90;1.00;;;;;;5053279;28;20220;-83
2022/03/14 11:39:45;;;;;;;28.07;15.50;;;13.90;1.00;;;;;;5055616;28;20253;-82
2022/03/14 11:42:15;;;;;;;27.57;15.70;;;13.80;1.00;;;;;;5053958;28;20193;-84
2022/03/14 11:44:46;;;;;;;29.67;17.33;;;13.90;1.00;;;;;;5054657;28;20278;-82
2022/03/14 11:47:15;;;;;;;28.00;15.90;;;13.80;1.00;;;;;;5054898;28;20197;-82
2022/03/14 11:49:43;;;;;;;36.00;19.50;;;13.80;1.00;;;;;;5057811;28;20730;-82
2022/03/14 11:52:12;;;;;;;36.90;19.97;;;13.80;1.00;;;;;;5053821;28;20244;-83
2022/03/14 11:54:43;;;;;;;33.87;19.33;;;13.90;1.00;;;;;;5053578;28;20673;-84
2022/03/14 11:57:11;;;;;;;28.33;16.77;;;13.90;1.00;;;;;;5055511;28;20211;-84
2022/03/14 11:59:38;;;;;;;27.97;16.13;;;14.00;1.00;;;;;;5052178;28;20223;-83
2022/03/14 12:02:08;;;;;;;25.07;16.50;;;14.00;1.00;;;;;;5052228;28;20732;-82
2022/03/14 12:04:37;;;;;;;33.77;18.87;;;14.10;1.00;;;;;;5056214;28;20192;-85
2022/03/14 12:07:16;;;;;;;28.63;17.90;;;14.00;1.00;;;;;;5051633;28;20193;-83
2022/03/14 12:09:48;;;;;;;27.27;16.43;;;14.10;1.00;;;;;;5054117;28;20185;-85
2022/03/14 12:12:35;;;;;;;26.30;15.23;;;14.10;1.00;;;;;;5052694;28;20201;-83
2022/03/14 12:15:04;;;;;;;27.60;16.60;;;14.10;1.00;;;;;;5049453;28;20208;-84
2022/03/14 12:17:36;;;;;;;31.23;18.33;;;14.10;1.00;;;;;;5036554;28;20292;-85
2022/03/14 12:20:08;;;;;;;28.03;17.00;;;14.20;1.00;;;;;;5038268;28;20646;-84
2022/03/14 12:22:43;;;;;;;25.97;16.53;;;14.20;1.00;;;;;;5039877;28;20202;-82
2022/03/14 12:25:12;;;;;;;28.67;15.60;;;14.30;1.00;;;;;;5038883;28;20607;-85
2022/03/14 12:27:41;;;;;;;30.30;17.47;;;14.30;1.00;;;;;;5045520;28;20255;-83
2022/03/14 12:30:32;;;;;;;30.43;16.87;;;14.30;1.00;;;;;;5060737;28;20181;-85
2022/03/14 12:33:06;;;;;;;24.87;15.83;;;14.30;1.00;;;;;;5057536;28;20674;-82
2022/03/14 12:35:37;;;;;;;26.60;16.77;;;14.30;1.00;;;;;;5063968;28;20191;-85
2022/03/14 12:38:23;;;;;;;24.17;14.47;;;14.40;1.00;;;;;;5061594;28;20212;-84
2022/03/14 12:40:56;;;;;;;23.00;13.57;;;14.30;1.00;;;;;;5060673;28;20217;-85
2022/03/14 12:43:27;;;;;;;22.57;13.00;;;14.30;1.00;;;;;;5060414;28;20182;-85
2022/03/14 12:45:56;;;;;;;26.23;14.50;;;14.40;1.00;;;;;;5063353;28;20607;-87
2022/03/14 12:48:26;;;;;;;18.47;12.20;;;14.30;1.00;;;;;;5057072;28;20663;-84
2022/03/14 12:51:12;;;;;;;21.37;14.47;;;14.30;1.00;;;;;;5055679;28;20182;-85